Aeroporto :
LOGIN :

Iscrizione | Disclaimer

   EN    FR    IT 

 










Sommario :    VFR   VFR Marginale   IFR   IFR Intensivo   IFR Molto Intensivo
Visibilità : 
Base nubi : 
>= 8 km
>= 3000ft
5 / 8 km
1000 / 3000 ft
1500m / 5 km
500 / 1000 ft
800 / 1500m
200 / 500 ft
< 800m
< 200 ft
Simboli :   Temporali  Nebbia  Neve Forte  Precipitazioni Forti  Vento > 20 kt
SIGMETs :   Varie  Temporali  Ghiacco  Turbolenza  Onda orograficha  Ceneri Vulcaniche






- Altitudine del aeroporto : 55 ft
- Codice IATA : DSA


EGCN - Robin Hood Doncaster Sheffield

ULTIMO METAR :
  • 062120Z 27013KT 9999 FEW031 09/06 Q1004

METARs OBSOLETI :
  • 062050Z 28011KT CAVOK 09/06 Q1004
  • 062020Z 28014KT 9999 FEW035 10/06 Q1003
  • 061950Z 27017KT CAVOK 10/06 Q1003
  • 061920Z 27018KT CAVOK 10/06 Q1002
  • 061850Z 28016G26KT 9999 FEW034 10/06 Q1001

TAF AMD TAF EGCN
Valido dal 06 a 19 ore il 07 a 18 ore UTC


061901Z 0619/0718 27010KT 9999 FEW025
TEMPO 0619/0621 27015G25KT
BECMG 0709/0712 21008KT
TEMPO 0715/0718 BKN014



MetMap, La meteo Aeronautica in un colpo d'occhio ! - Copyright ORBIFLY Dicembre 2007 - Disclaimer

ORBIFLY MET'MAP TEAM :

Programmazione e sviluppo : Alexandra Zaïnal
Concezione : Baudouin d'Aumeries
Aiuto per la programmazione : Marc-Olivier Méhu
Supporto tecnico e logistico : Manuel Goepfert
Aiuto per la traduzione : Arnaldo La Scala

Contatto : metmap@orbifly.com




FONTI E CREDITI :

   NOAA